LFPM 191730Z AUTO 25003KT 190V310 CAVOK 26/17 Q1019

Notre flotte, composée de neuf avions de 65 à 285 CV